Estación meteorológica de Montseny - Mas Joan (Vallès Oriental, P.N.del Montseny)

Consulta los datos en tiempo real de la estación meteorológica de Montseny - Mas Joan





Hora UTC 07:00
Temperatura 11.8 ºC
Humedad 84.3 %
Pluja 0.0 mm
Velocidad viento 2.1 km/h
Dirección viento ESE
Radiación solar 188.2 W/m²

Datos diarios 2026-05-03



Hora UTC (invierno +1h; verano +2h)
Temperatura (ºC) Humedad (%) Velocidad viento (km/h) Precipitación (mm) Radiación solar (W/m²)
Hora UTC Aire Humedad Vel. Dir. Vel. Max Dir. Intent. máx 5 min. Rad. Sol.
00:05 11.7 86.8 0.5 SW 1.0 SW 0.0 0.0
00:10 11.6 87.1 1.3 SSE 2.6 SE 0.0 0.0
00:15 11.7 87.5 0.9 NNE 2.3 E 0.0 0.0
00:20 11.6 87.6 1.0 NNW 1.7 N 0.0 0.0
00:25 11.6 87.9 0.7 NW 1.2 N 0.0 0.0
00:30 11.6 88.2 1.0 NNW 1.6 NNW 0.0 0.0
00:35 11.5 88.4 1.7 N 2.7 NNE 0.0 0.0
00:40 11.5 88.6 1.1 E 3.0 NE 0.0 0.0
00:45 11.5 88.5 1.0 N 2.0 SSE 0.0 0.0
00:50 11.5 88.6 0.6 NNW 1.6 E 0.0 0.0
00:55 11.5 88.7 0.7 WSW 1.4 S 0.0 0.0
01:00 11.5 89.1 1.5 WNW 2.4 NW 0.0 0.0
01:05 11.5 89.4 1.5 NW 2.3 NNW 0.0 0.0
01:10 11.5 89.6 1.3 NNW 1.8 NNW 0.0 0.0
01:15 11.5 89.7 0.8 NNE 2.3 ESE 0.0 0.0
01:20 11.4 89.1 1.9 ENE 4.2 ENE 0.0 0.0
01:25 11.4 87.4 2.2 SE 4.4 SSE 0.0 0.0
01:30 11.6 86.1 1.5 S 3.8 SSE 0.0 0.0
01:35 11.6 86.0 2.2 S 5.7 SSE 0.0 0.0
01:40 11.6 85.7 1.9 SSE 4.8 S 0.0 0.0
01:45 11.6 85.7 1.1 SW 2.4 SSE 0.0 0.0
01:50 11.5 86.0 1.1 SSW 2.3 S 0.0 0.0
01:55 11.4 86.2 1.4 WSW 2.4 SSW 0.0 0.0
02:00 11.3 86.5 1.6 WSW 2.1 W 0.0 0.0
02:05 11.2 86.6 1.5 W 1.8 WSW 0.0 0.0
02:10 11.0 86.1 1.6 WSW 2.9 W 0.0 0.0
02:15 10.6 78.7 1.8 W 2.8 W 0.0 0.0
02:20 10.5 75.2 2.6 W 3.5 WSW 0.0 0.0
02:25 10.2 72.7 2.4 W 3.3 WNW 0.0 0.0
02:30 10.1 71.3 2.6 W 3.7 W 0.0 0.0
02:35 10.1 70.6 2.8 WSW 3.5 W 0.0 0.0
02:40 10.1 68.5 2.7 W 3.5 WSW 0.0 0.0
02:45 10.2 68.6 2.9 WSW 3.5 WSW 0.0 0.0
02:50 10.1 68.8 2.9 WSW 3.5 WSW 0.0 0.0
02:55 10.1 67.3 2.6 WSW 3.4 WSW 0.0 0.2
03:00 10.2 67.2 2.3 W 3.9 WSW 0.0 0.6
03:05 10.4 65.4 2.4 W 3.2 WSW 0.0 0.7
03:10 10.5 66.0 2.2 WSW 3.0 WSW 0.0 0.4
03:15 10.5 67.5 1.8 SW 3.3 SSW 0.0 0.1
03:20 10.5 68.4 2.1 SSW 4.4 S 0.0 0.2
03:25 10.7 68.0 2.1 SSW 5.6 S 0.0 0.3
03:30 10.8 67.9 1.0 WSW 1.9 SW 0.0 0.0
03:35 10.8 68.3 1.4 SW 3.3 SSW 0.0 0.0
03:40 10.7 69.2 1.7 WSW 3.0 WNW 0.0 0.0
03:45 10.8 68.9 1.8 W 2.6 W 0.0 0.0
03:50 10.7 69.6 2.0 W 3.0 WNW 0.0 0.0
03:55 10.8 69.6 1.7 W 2.9 W 0.0 0.0
04:00 10.9 68.2 1.9 WSW 3.8 SW 0.0 0.2
04:05 11.0 67.0 1.8 WSW 3.5 SW 0.0 0.3
04:10 11.1 67.0 1.7 WSW 3.0 W 0.0 0.2
04:15 11.0 68.3 1.6 WSW 2.1 W 0.0 0.0
04:20 11.0 70.5 1.6 W 2.9 W 0.0 0.0
04:25 11.0 72.8 1.1 WSW 2.0 W 0.0 0.0
04:30 11.1 74.3 1.7 WSW 2.4 WSW 0.0 0.0
04:35 11.0 72.9 1.4 WSW 1.8 WSW 0.0 0.0
04:40 10.8 71.2 2.0 WSW 2.6 WSW 0.0 0.0
04:45 10.6 69.1 2.1 WSW 3.1 WSW 0.0 1.2
04:50 10.5 70.0 2.2 SW 4.8 W 0.0 3.1
04:55 10.6 71.9 2.1 SSW 3.5 SSE 0.0 8.4
05:00 10.5 74.8 1.5 SSW 2.8 S 0.0 15.2
05:05 10.7 79.1 3.0 S 5.4 S 0.0 13.4
05:10 10.8 82.2 2.5 S 5.6 S 0.0 14.2
05:15 10.8 82.7 1.0 SW 2.5 S 0.0 17.5
05:20 10.8 82.7 0.9 SW 1.3 SSW 0.0 23.1
05:25 10.7 82.7 1.8 W 3.8 WNW 0.0 27.8
05:30 10.7 83.1 3.1 NW 4.1 WNW 0.0 34.8
05:35 10.6 84.5 1.7 NNW 3.9 0.0 49.0
05:40 10.6 85.1 1.6 NNE 3.1 ENE 0.0 65.5
05:45 10.6 84.6 1.2 ENE 2.4 NE 0.0 81.3
05:50 10.7 83.9 2.0 SE 3.0 SSE 0.0 85.3
05:55 10.9 84.9 1.9 SSE 3.1 S 0.0 85.6
06:00 10.9 83.5 1.5 SE 2.6 SSE 0.0 83.7
06:05 11.0 82.7 2.0 N 5.7 N 0.0 104.5
06:10 11.1 82.4 2.5 NNE 4.9 N 0.0 115.8
06:15 11.2 81.2 1.6 NE 3.6 ENE 0.0 116.7
06:20 11.4 81.5 1.7 N 3.0 N 0.0 126.2
06:25 11.5 81.0 2.3 NNE 4.0 NNE 0.0 153.0
06:30 11.7 79.5 2.7 NE 5.2 ENE 0.0 132.9
06:35 11.7 80.0 3.1 N 6.0 NNE 0.0 0.0
06:40 11.7 82.4 3.1 E 5.9 ENE 0.0 132.2
06:45 11.5 83.8 2.7 ESE 4.8 E 0.0 141.6
06:50 11.6 83.6 2.4 SE 5.0 E 0.0 145.4
06:55 11.6 83.8 2.1 SE 4.2 ESE 0.0 188.5
07:00 11.8 84.3 2.1 ESE 4.4 ESE 0.0 188.2
Máxima 11.8 89.7 3.1 E 6.0 NNE 0.0 188.5
Mínima 10.1 65.4
Total 0.0